sensor_id;sensor_type;location;lat;lon;timestamp;P1;durP1;ratioP1;P2;durP2;ratioP2
68523;SDS011;55524;51.380;13.372;2023-05-06T00:00:17;9.00;;;6.53;;
68523;SDS011;55524;51.380;13.372;2023-05-06T00:02:44;14.48;;;6.80;;
68523;SDS011;55524;51.380;13.372;2023-05-06T00:05:11;15.93;;;7.03;;
68523;SDS011;55524;51.380;13.372;2023-05-06T00:07:38;13.25;;;6.32;;
68523;SDS011;55524;51.380;13.372;2023-05-06T00:10:04;11.00;;;6.70;;
68523;SDS011;55524;51.380;13.372;2023-05-06T00:12:31;15.35;;;6.63;;
68523;SDS011;55524;51.380;13.372;2023-05-06T00:14:57;16.10;;;6.45;;
68523;SDS011;55524;51.380;13.372;2023-05-06T00:17:23;10.88;;;6.38;;
68523;SDS011;55524;51.380;13.372;2023-05-06T00:19:50;10.93;;;5.97;;
68523;SDS011;55524;51.380;13.372;2023-05-06T00:22:16;11.00;;;6.43;;
68523;SDS011;55524;51.380;13.372;2023-05-06T00:24:42;12.30;;;6.20;;
68523;SDS011;55524;51.380;13.372;2023-05-06T00:27:09;10.27;;;6.25;;
68523;SDS011;55524;51.380;13.372;2023-05-06T00:29:35;12.48;;;6.18;;
68523;SDS011;55524;51.380;13.372;2023-05-06T00:32:01;11.43;;;6.18;;
68523;SDS011;55524;51.380;13.372;2023-05-06T00:34:28;15.15;;;6.85;;
68523;SDS011;55524;51.380;13.372;2023-05-06T00:36:54;11.50;;;6.43;;
68523;SDS011;55524;51.380;13.372;2023-05-06T00:39:20;10.02;;;6.45;;
68523;SDS011;55524;51.380;13.372;2023-05-06T00:41:46;11.07;;;6.75;;
68523;SDS011;55524;51.380;13.372;2023-05-06T00:44:13;14.40;;;6.53;;
68523;SDS011;55524;51.380;13.372;2023-05-06T00:46:39;15.52;;;6.70;;
68523;SDS011;55524;51.380;13.372;2023-05-06T00:49:06;10.65;;;7.20;;
68523;SDS011;55524;51.380;13.372;2023-05-06T00:51:33;12.75;;;6.28;;
68523;SDS011;55524;51.380;13.372;2023-05-06T00:54:00;9.63;;;6.28;;
68523;SDS011;55524;51.380;13.372;2023-05-06T00:56:27;17.33;;;6.28;;
68523;SDS011;55524;51.380;13.372;2023-05-06T00:58:56;13.40;;;6.50;;
68523;SDS011;55524;51.380;13.372;2023-05-06T01:01:23;13.75;;;6.85;;
68523;SDS011;55524;51.380;13.372;2023-05-06T01:03:51;12.82;;;6.90;;
68523;SDS011;55524;51.380;13.372;2023-05-06T01:11:55;11.18;;;6.60;;
68523;SDS011;55524;51.380;13.372;2023-05-06T01:17:06;11.60;;;6.78;;
68523;SDS011;55524;51.380;13.372;2023-05-06T01:19:36;13.73;;;6.88;;
68523;SDS011;55524;51.380;13.372;2023-05-06T01:22:10;8.90;;;7.53;;
68523;SDS011;55524;51.380;13.372;2023-05-06T01:24:42;11.40;;;6.97;;
68523;SDS011;55524;51.380;13.372;2023-05-06T01:27:10;10.25;;;6.72;;
68523;SDS011;55524;51.380;13.372;2023-05-06T01:29:37;17.48;;;7.70;;
68523;SDS011;55524;51.380;13.372;2023-05-06T01:37:28;12.95;;;6.95;;
68523;SDS011;55524;51.380;13.372;2023-05-06T01:40:07;13.88;;;6.93;;
68523;SDS011;55524;51.380;13.372;2023-05-06T01:42:35;12.18;;;6.60;;
68523;SDS011;55524;51.380;13.372;2023-05-06T01:45:04;10.32;;;6.63;;
68523;SDS011;55524;51.380;13.372;2023-05-06T01:47:32;15.18;;;7.20;;
68523;SDS011;55524;51.380;13.372;2023-05-06T01:50:00;17.30;;;7.40;;
68523;SDS011;55524;51.380;13.372;2023-05-06T01:52:27;13.70;;;7.35;;
68523;SDS011;55524;51.380;13.372;2023-05-06T01:54:53;10.65;;;7.00;;
68523;SDS011;55524;51.380;13.372;2023-05-06T01:57:20;12.05;;;7.15;;
68523;SDS011;55524;51.380;13.372;2023-05-06T01:59:46;14.43;;;7.55;;
68523;SDS011;55524;51.380;13.372;2023-05-06T02:02:12;11.05;;;7.40;;
68523;SDS011;55524;51.380;13.372;2023-05-06T02:04:39;13.23;;;7.75;;
68523;SDS011;55524;51.380;13.372;2023-05-06T02:07:05;13.38;;;6.80;;
68523;SDS011;55524;51.380;13.372;2023-05-06T02:09:31;13.82;;;7.22;;
68523;SDS011;55524;51.380;13.372;2023-05-06T02:11:57;10.32;;;7.57;;
68523;SDS011;55524;51.380;13.372;2023-05-06T02:14:24;9.38;;;7.50;;
68523;SDS011;55524;51.380;13.372;2023-05-06T02:16:50;17.50;;;8.20;;
68523;SDS011;55524;51.380;13.372;2023-05-06T02:19:17;12.65;;;7.35;;
68523;SDS011;55524;51.380;13.372;2023-05-06T02:21:43;13.88;;;7.05;;
68523;SDS011;55524;51.380;13.372;2023-05-06T02:24:09;14.32;;;7.28;;
68523;SDS011;55524;51.380;13.372;2023-05-06T02:26:35;11.73;;;7.38;;
68523;SDS011;55524;51.380;13.372;2023-05-06T02:29:02;9.82;;;7.72;;
68523;SDS011;55524;51.380;13.372;2023-05-06T02:31:28;14.02;;;7.80;;
68523;SDS011;55524;51.380;13.372;2023-05-06T02:33:55;11.60;;;7.88;;
68523;SDS011;55524;51.380;13.372;2023-05-06T02:36:21;11.73;;;7.90;;
68523;SDS011;55524;51.380;13.372;2023-05-06T02:38:48;13.77;;;7.32;;
68523;SDS011;55524;51.380;13.372;2023-05-06T02:41:14;11.98;;;7.93;;
68523;SDS011;55524;51.380;13.372;2023-05-06T02:43:40;13.27;;;7.80;;
68523;SDS011;55524;51.380;13.372;2023-05-06T02:46:06;10.60;;;7.47;;
68523;SDS011;55524;51.380;13.372;2023-05-06T02:48:33;9.13;;;7.28;;
68523;SDS011;55524;51.380;13.372;2023-05-06T02:50:59;10.13;;;7.85;;
68523;SDS011;55524;51.380;13.372;2023-05-06T02:53:26;14.43;;;8.05;;
68523;SDS011;55524;51.380;13.372;2023-05-06T02:55:52;10.18;;;7.65;;
68523;SDS011;55524;51.380;13.372;2023-05-06T02:58:18;14.07;;;8.48;;
68523;SDS011;55524;51.380;13.372;2023-05-06T03:00:44;11.48;;;7.68;;
68523;SDS011;55524;51.380;13.372;2023-05-06T03:03:11;10.93;;;7.63;;
68523;SDS011;55524;51.380;13.372;2023-05-06T03:05:37;11.02;;;8.35;;
68523;SDS011;55524;51.380;13.372;2023-05-06T03:08:03;17.08;;;8.55;;
68523;SDS011;55524;51.380;13.372;2023-05-06T03:10:30;18.98;;;8.52;;
68523;SDS011;55524;51.380;13.372;2023-05-06T03:12:56;12.75;;;8.82;;
68523;SDS011;55524;51.380;13.372;2023-05-06T03:15:23;11.90;;;8.38;;
68523;SDS011;55524;51.380;13.372;2023-05-06T03:17:49;11.52;;;8.40;;
68523;SDS011;55524;51.380;13.372;2023-05-06T03:20:15;17.15;;;8.63;;
68523;SDS011;55524;51.380;13.372;2023-05-06T03:22:41;20.17;;;10.00;;
68523;SDS011;55524;51.380;13.372;2023-05-06T03:25:08;11.55;;;8.95;;
68523;SDS011;55524;51.380;13.372;2023-05-06T03:27:34;14.13;;;8.40;;
68523;SDS011;55524;51.380;13.372;2023-05-06T03:30:01;15.30;;;8.77;;
68523;SDS011;55524;51.380;13.372;2023-05-06T03:32:27;13.88;;;8.73;;
68523;SDS011;55524;51.380;13.372;2023-05-06T03:34:54;10.02;;;8.38;;
68523;SDS011;55524;51.380;13.372;2023-05-06T03:37:21;14.45;;;8.68;;
68523;SDS011;55524;51.380;13.372;2023-05-06T03:39:47;12.25;;;9.15;;
68523;SDS011;55524;51.380;13.372;2023-05-06T03:42:13;13.85;;;8.95;;
68523;SDS011;55524;51.380;13.372;2023-05-06T03:44:40;12.82;;;8.25;;
68523;SDS011;55524;51.380;13.372;2023-05-06T03:47:06;10.65;;;8.75;;
68523;SDS011;55524;51.380;13.372;2023-05-06T03:49:32;14.27;;;8.45;;
68523;SDS011;55524;51.380;13.372;2023-05-06T03:51:59;12.00;;;9.13;;
68523;SDS011;55524;51.380;13.372;2023-05-06T03:54:25;13.63;;;9.45;;
68523;SDS011;55524;51.380;13.372;2023-05-06T03:56:51;10.93;;;8.43;;
68523;SDS011;55524;51.380;13.372;2023-05-06T03:59:17;13.43;;;8.63;;
68523;SDS011;55524;51.380;13.372;2023-05-06T04:01:44;11.30;;;8.45;;
68523;SDS011;55524;51.380;13.372;2023-05-06T04:04:10;12.40;;;9.73;;
68523;SDS011;55524;51.380;13.372;2023-05-06T04:06:36;13.68;;;8.23;;
68523;SDS011;55524;51.380;13.372;2023-05-06T04:09:02;14.85;;;10.02;;
68523;SDS011;55524;51.380;13.372;2023-05-06T04:14:00;15.07;;;9.00;;
68523;SDS011;55524;51.380;13.372;2023-05-06T04:16:26;15.13;;;8.95;;
68523;SDS011;55524;51.380;13.372;2023-05-06T04:18:53;11.38;;;9.32;;
68523;SDS011;55524;51.380;13.372;2023-05-06T04:21:19;15.20;;;8.63;;
68523;SDS011;55524;51.380;13.372;2023-05-06T04:23:45;13.45;;;9.13;;
68523;SDS011;55524;51.380;13.372;2023-05-06T04:26:12;12.75;;;9.52;;
68523;SDS011;55524;51.380;13.372;2023-05-06T04:28:38;13.10;;;9.70;;
68523;SDS011;55524;51.380;13.372;2023-05-06T04:31:04;14.38;;;9.50;;
68523;SDS011;55524;51.380;13.372;2023-05-06T04:33:33;13.73;;;10.10;;
68523;SDS011;55524;51.380;13.372;2023-05-06T04:35:59;15.02;;;9.80;;
68523;SDS011;55524;51.380;13.372;2023-05-06T04:38:26;14.93;;;9.77;;
68523;SDS011;55524;51.380;13.372;2023-05-06T04:40:55;18.70;;;9.85;;
68523;SDS011;55524;51.380;13.372;2023-05-06T04:43:22;17.80;;;9.73;;
68523;SDS011;55524;51.380;13.372;2023-05-06T04:45:50;14.48;;;9.07;;
68523;SDS011;55524;51.380;13.372;2023-05-06T04:48:17;13.52;;;8.65;;
68523;SDS011;55524;51.380;13.372;2023-05-06T04:50:43;13.23;;;8.25;;
68523;SDS011;55524;51.380;13.372;2023-05-06T04:53:11;12.50;;;8.68;;
68523;SDS011;55524;51.380;13.372;2023-05-06T04:55:38;13.50;;;8.95;;
68523;SDS011;55524;51.380;13.372;2023-05-06T04:58:04;12.95;;;8.95;;
68523;SDS011;55524;51.380;13.372;2023-05-06T05:00:31;14.30;;;9.00;;
68523;SDS011;55524;51.380;13.372;2023-05-06T05:02:58;9.77;;;8.65;;
68523;SDS011;55524;51.380;13.372;2023-05-06T05:05:26;14.88;;;9.27;;
68523;SDS011;55524;51.380;13.372;2023-05-06T05:07:53;15.02;;;9.27;;
68523;SDS011;55524;51.380;13.372;2023-05-06T05:10:20;12.40;;;9.52;;
68523;SDS011;55524;51.380;13.372;2023-05-06T05:12:46;12.73;;;9.27;;
68523;SDS011;55524;51.380;13.372;2023-05-06T05:15:12;12.48;;;9.63;;
68523;SDS011;55524;51.380;13.372;2023-05-06T05:17:39;16.08;;;9.52;;
68523;SDS011;55524;51.380;13.372;2023-05-06T05:20:05;14.93;;;9.85;;
68523;SDS011;55524;51.380;13.372;2023-05-06T05:22:32;13.45;;;9.82;;
68523;SDS011;55524;51.380;13.372;2023-05-06T05:24:58;11.40;;;9.23;;
68523;SDS011;55524;51.380;13.372;2023-05-06T05:27:24;16.38;;;9.57;;
68523;SDS011;55524;51.380;13.372;2023-05-06T05:29:51;14.07;;;9.70;;
68523;SDS011;55524;51.380;13.372;2023-05-06T05:32:18;20.02;;;10.63;;
68523;SDS011;55524;51.380;13.372;2023-05-06T05:34:45;19.27;;;10.80;;
68523;SDS011;55524;51.380;13.372;2023-05-06T05:37:12;17.80;;;10.93;;
68523;SDS011;55524;51.380;13.372;2023-05-06T05:39:38;14.90;;;11.95;;
68523;SDS011;55524;51.380;13.372;2023-05-06T05:42:04;20.48;;;14.10;;
68523;SDS011;55524;51.380;13.372;2023-05-06T05:44:31;29.77;;;22.17;;
68523;SDS011;55524;51.380;13.372;2023-05-06T05:46:57;20.35;;;12.25;;
68523;SDS011;55524;51.380;13.372;2023-05-06T05:49:23;23.52;;;19.98;;
68523;SDS011;55524;51.380;13.372;2023-05-06T05:51:49;15.63;;;10.88;;
68523;SDS011;55524;51.380;13.372;2023-05-06T05:54:16;16.50;;;10.80;;
68523;SDS011;55524;51.380;13.372;2023-05-06T05:56:42;18.92;;;12.70;;
68523;SDS011;55524;51.380;13.372;2023-05-06T05:59:08;24.55;;;14.15;;
68523;SDS011;55524;51.380;13.372;2023-05-06T06:01:35;18.45;;;10.65;;
68523;SDS011;55524;51.380;13.372;2023-05-06T06:04:01;22.15;;;10.68;;
68523;SDS011;55524;51.380;13.372;2023-05-06T06:06:27;18.05;;;11.68;;
68523;SDS011;55524;51.380;13.372;2023-05-06T06:08:53;13.75;;;10.95;;
68523;SDS011;55524;51.380;13.372;2023-05-06T06:11:20;21.50;;;11.15;;
68523;SDS011;55524;51.380;13.372;2023-05-06T06:13:46;21.55;;;12.30;;
68523;SDS011;55524;51.380;13.372;2023-05-06T06:16:12;22.42;;;11.88;;
68523;SDS011;55524;51.380;13.372;2023-05-06T06:18:39;23.35;;;12.52;;
68523;SDS011;55524;51.380;13.372;2023-05-06T06:21:05;24.77;;;12.30;;
68523;SDS011;55524;51.380;13.372;2023-05-06T06:23:31;25.77;;;12.20;;
68523;SDS011;55524;51.380;13.372;2023-05-06T06:25:58;24.25;;;13.35;;
68523;SDS011;55524;51.380;13.372;2023-05-06T06:28:26;22.55;;;12.48;;
68523;SDS011;55524;51.380;13.372;2023-05-06T06:30:52;21.42;;;13.27;;
68523;SDS011;55524;51.380;13.372;2023-05-06T06:33:18;21.35;;;13.57;;
68523;SDS011;55524;51.380;13.372;2023-05-06T06:35:45;30.15;;;13.65;;
68523;SDS011;55524;51.380;13.372;2023-05-06T06:38:11;31.88;;;14.15;;
68523;SDS011;55524;51.380;13.372;2023-05-06T06:40:37;24.73;;;13.43;;
68523;SDS011;55524;51.380;13.372;2023-05-06T06:43:04;22.67;;;12.20;;
68523;SDS011;55524;51.380;13.372;2023-05-06T06:45:30;30.20;;;13.90;;
68523;SDS011;55524;51.380;13.372;2023-05-06T06:47:56;25.42;;;13.45;;
68523;SDS011;55524;51.380;13.372;2023-05-06T06:50:23;57.45;;;16.05;;
68523;SDS011;55524;51.380;13.372;2023-05-06T06:52:49;30.10;;;14.55;;
68523;SDS011;55524;51.380;13.372;2023-05-06T06:55:15;31.30;;;13.95;;
68523;SDS011;55524;51.380;13.372;2023-05-06T06:57:42;30.85;;;14.60;;
68523;SDS011;55524;51.380;13.372;2023-05-06T07:00:08;34.47;;;14.38;;
68523;SDS011;55524;51.380;13.372;2023-05-06T07:02:35;30.23;;;13.63;;
68523;SDS011;55524;51.380;13.372;2023-05-06T07:05:01;26.30;;;14.57;;
68523;SDS011;55524;51.380;13.372;2023-05-06T07:07:28;29.95;;;14.68;;
68523;SDS011;55524;51.380;13.372;2023-05-06T07:09:55;32.15;;;14.05;;
68523;SDS011;55524;51.380;13.372;2023-05-06T07:12:21;34.15;;;15.10;;
68523;SDS011;55524;51.380;13.372;2023-05-06T07:14:48;25.90;;;13.80;;
68523;SDS011;55524;51.380;13.372;2023-05-06T07:17:15;51.75;;;14.90;;
68523;SDS011;55524;51.380;13.372;2023-05-06T07:19:42;43.78;;;15.40;;
68523;SDS011;55524;51.380;13.372;2023-05-06T07:22:08;32.05;;;13.48;;
68523;SDS011;55524;51.380;13.372;2023-05-06T07:24:35;27.67;;;13.55;;
68523;SDS011;55524;51.380;13.372;2023-05-06T07:27:01;24.13;;;13.10;;
68523;SDS011;55524;51.380;13.372;2023-05-06T07:29:28;27.63;;;13.82;;
68523;SDS011;55524;51.380;13.372;2023-05-06T07:31:55;25.38;;;14.73;;
68523;SDS011;55524;51.380;13.372;2023-05-06T07:34:21;35.05;;;15.00;;
68523;SDS011;55524;51.380;13.372;2023-05-06T07:36:47;30.55;;;15.52;;
68523;SDS011;55524;51.380;13.372;2023-05-06T07:39:14;27.88;;;15.00;;
68523;SDS011;55524;51.380;13.372;2023-05-06T07:41:40;26.60;;;14.80;;
68523;SDS011;55524;51.380;13.372;2023-05-06T07:44:07;32.70;;;15.38;;
68523;SDS011;55524;51.380;13.372;2023-05-06T07:46:33;28.60;;;14.65;;
68523;SDS011;55524;51.380;13.372;2023-05-06T07:48:59;31.98;;;15.15;;
68523;SDS011;55524;51.380;13.372;2023-05-06T07:51:26;31.48;;;15.43;;
68523;SDS011;55524;51.380;13.372;2023-05-06T07:53:52;34.65;;;15.88;;
68523;SDS011;55524;51.380;13.372;2023-05-06T07:56:18;32.72;;;15.50;;
68523;SDS011;55524;51.380;13.372;2023-05-06T07:58:45;35.00;;;16.00;;
68523;SDS011;55524;51.380;13.372;2023-05-06T08:01:13;32.90;;;16.83;;
68523;SDS011;55524;51.380;13.372;2023-05-06T08:03:40;33.15;;;17.40;;
68523;SDS011;55524;51.380;13.372;2023-05-06T08:06:07;33.45;;;16.98;;
68523;SDS011;55524;51.380;13.372;2023-05-06T08:08:33;33.45;;;18.17;;
68523;SDS011;55524;51.380;13.372;2023-05-06T08:10:59;41.50;;;19.40;;
68523;SDS011;55524;51.380;13.372;2023-05-06T08:13:26;38.72;;;18.83;;
68523;SDS011;55524;51.380;13.372;2023-05-06T08:15:52;32.38;;;17.98;;
68523;SDS011;55524;51.380;13.372;2023-05-06T08:18:20;37.50;;;19.05;;
68523;SDS011;55524;51.380;13.372;2023-05-06T08:20:46;38.58;;;19.00;;
68523;SDS011;55524;51.380;13.372;2023-05-06T08:23:12;43.90;;;20.83;;
68523;SDS011;55524;51.380;13.372;2023-05-06T08:25:39;44.10;;;20.10;;
68523;SDS011;55524;51.380;13.372;2023-05-06T08:28:05;41.47;;;20.92;;
68523;SDS011;55524;51.380;13.372;2023-05-06T08:30:31;49.03;;;20.85;;
68523;SDS011;55524;51.380;13.372;2023-05-06T08:32:58;41.35;;;21.60;;
68523;SDS011;55524;51.380;13.372;2023-05-06T08:35:24;41.80;;;22.77;;
68523;SDS011;55524;51.380;13.372;2023-05-06T08:37:50;40.28;;;22.73;;
68523;SDS011;55524;51.380;13.372;2023-05-06T08:40:17;45.78;;;21.98;;
68523;SDS011;55524;51.380;13.372;2023-05-06T08:42:45;42.42;;;22.63;;
68523;SDS011;55524;51.380;13.372;2023-05-06T08:45:13;36.67;;;19.95;;
68523;SDS011;55524;51.380;13.372;2023-05-06T08:47:41;41.03;;;19.08;;
68523;SDS011;55524;51.380;13.372;2023-05-06T08:50:08;35.80;;;19.80;;
68523;SDS011;55524;51.380;13.372;2023-05-06T08:52:35;34.92;;;18.95;;
68523;SDS011;55524;51.380;13.372;2023-05-06T08:55:02;35.08;;;18.45;;
68523;SDS011;55524;51.380;13.372;2023-05-06T08:57:31;34.33;;;17.40;;
68523;SDS011;55524;51.380;13.372;2023-05-06T08:59:58;33.38;;;17.35;;
68523;SDS011;55524;51.380;13.372;2023-05-06T09:02:25;34.40;;;16.58;;
68523;SDS011;55524;51.380;13.372;2023-05-06T09:04:52;27.10;;;16.13;;
68523;SDS011;55524;51.380;13.372;2023-05-06T09:07:20;26.90;;;16.17;;
68523;SDS011;55524;51.380;13.372;2023-05-06T09:09:47;24.50;;;16.70;;
68523;SDS011;55524;51.380;13.372;2023-05-06T09:12:15;35.53;;;16.40;;
68523;SDS011;55524;51.380;13.372;2023-05-06T09:14:41;25.38;;;16.40;;
68523;SDS011;55524;51.380;13.372;2023-05-06T09:17:17;26.30;;;16.08;;
68523;SDS011;55524;51.380;13.372;2023-05-06T09:19:54;24.90;;;16.20;;
68523;SDS011;55524;51.380;13.372;2023-05-06T09:22:21;25.73;;;16.00;;
68523;SDS011;55524;51.380;13.372;2023-05-06T09:24:49;28.77;;;16.77;;
68523;SDS011;55524;51.380;13.372;2023-05-06T09:27:21;27.00;;;16.08;;
68523;SDS011;55524;51.380;13.372;2023-05-06T09:29:59;24.73;;;16.02;;
68523;SDS011;55524;51.380;13.372;2023-05-06T09:32:30;28.10;;;16.00;;
68523;SDS011;55524;51.380;13.372;2023-05-06T09:34:57;26.80;;;16.48;;
68523;SDS011;55524;51.380;13.372;2023-05-06T09:37:24;27.30;;;15.98;;
68523;SDS011;55524;51.380;13.372;2023-05-06T09:39:55;23.85;;;16.48;;
68523;SDS011;55524;51.380;13.372;2023-05-06T09:42:25;23.00;;;16.77;;
68523;SDS011;55524;51.380;13.372;2023-05-06T09:44:53;26.30;;;16.40;;
68523;SDS011;55524;51.380;13.372;2023-05-06T09:47:32;25.70;;;16.88;;
68523;SDS011;55524;51.380;13.372;2023-05-06T09:50:02;28.90;;;16.58;;
68523;SDS011;55524;51.380;13.372;2023-05-06T09:52:29;27.70;;;17.70;;
68523;SDS011;55524;51.380;13.372;2023-05-06T09:54:56;26.25;;;16.23;;
68523;SDS011;55524;51.380;13.372;2023-05-06T09:57:23;30.52;;;17.10;;
68523;SDS011;55524;51.380;13.372;2023-05-06T09:59:50;26.55;;;17.00;;
68523;SDS011;55524;51.380;13.372;2023-05-06T10:02:18;29.58;;;17.58;;
68523;SDS011;55524;51.380;13.372;2023-05-06T10:04:47;25.52;;;16.75;;
68523;SDS011;55524;51.380;13.372;2023-05-06T10:07:14;30.58;;;17.70;;
68523;SDS011;55524;51.380;13.372;2023-05-06T10:09:46;27.83;;;17.08;;
68523;SDS011;55524;51.380;13.372;2023-05-06T10:12:15;29.77;;;18.70;;
68523;SDS011;55524;51.380;13.372;2023-05-06T10:14:43;26.85;;;17.67;;
68523;SDS011;55524;51.380;13.372;2023-05-06T10:17:10;28.17;;;17.15;;
68523;SDS011;55524;51.380;13.372;2023-05-06T10:19:44;29.60;;;16.98;;
68523;SDS011;55524;51.380;13.372;2023-05-06T10:27:32;26.05;;;15.07;;
68523;SDS011;55524;51.380;13.372;2023-05-06T10:30:03;26.10;;;15.88;;
68523;SDS011;55524;51.380;13.372;2023-05-06T10:32:31;25.80;;;14.55;;
68523;SDS011;55524;51.380;13.372;2023-05-06T10:35:00;27.65;;;15.07;;
68523;SDS011;55524;51.380;13.372;2023-05-06T10:37:34;27.00;;;14.80;;
68523;SDS011;55524;51.380;13.372;2023-05-06T10:40:03;20.50;;;13.05;;
68523;SDS011;55524;51.380;13.372;2023-05-06T10:42:33;33.38;;;21.65;;
68523;SDS011;55524;51.380;13.372;2023-05-06T10:45:01;22.30;;;13.98;;
68523;SDS011;55524;51.380;13.372;2023-05-06T10:52:50;19.58;;;13.90;;
68523;SDS011;55524;51.380;13.372;2023-05-06T10:55:27;20.40;;;13.55;;
68523;SDS011;55524;51.380;13.372;2023-05-06T10:57:56;21.73;;;14.20;;
68523;SDS011;55524;51.380;13.372;2023-05-06T11:00:35;19.85;;;12.88;;
68523;SDS011;55524;51.380;13.372;2023-05-06T11:03:06;17.73;;;12.63;;
68523;SDS011;55524;51.380;13.372;2023-05-06T11:05:47;30.25;;;14.75;;
68523;SDS011;55524;51.380;13.372;2023-05-06T11:08:20;24.83;;;14.48;;
68523;SDS011;55524;51.380;13.372;2023-05-06T11:10:48;19.30;;;13.30;;
68523;SDS011;55524;51.380;13.372;2023-05-06T11:13:24;21.50;;;13.80;;
68523;SDS011;55524;51.380;13.372;2023-05-06T11:15:52;25.05;;;14.40;;
68523;SDS011;55524;51.380;13.372;2023-05-06T11:20:50;21.05;;;13.63;;
68523;SDS011;55524;51.380;13.372;2023-05-06T11:26:13;23.38;;;12.60;;
68523;SDS011;55524;51.380;13.372;2023-05-06T11:28:44;19.75;;;13.60;;
68523;SDS011;55524;51.380;13.372;2023-05-06T11:31:14;22.25;;;14.55;;
68523;SDS011;55524;51.380;13.372;2023-05-06T11:33:45;20.25;;;13.32;;
68523;SDS011;55524;51.380;13.372;2023-05-06T11:36:19;20.85;;;13.40;;
68523;SDS011;55524;51.380;13.372;2023-05-06T11:38:47;21.65;;;13.13;;
68523;SDS011;55524;51.380;13.372;2023-05-06T11:41:15;24.60;;;14.20;;
68523;SDS011;55524;51.380;13.372;2023-05-06T11:43:46;18.75;;;13.48;;
68523;SDS011;55524;51.380;13.372;2023-05-06T11:46:20;25.00;;;13.57;;
68523;SDS011;55524;51.380;13.372;2023-05-06T11:51:14;24.10;;;13.85;;
68523;SDS011;55524;51.380;13.372;2023-05-06T11:56:13;29.55;;;15.32;;
68523;SDS011;55524;51.380;13.372;2023-05-06T11:58:39;39.80;;;20.35;;
68523;SDS011;55524;51.380;13.372;2023-05-06T12:01:06;24.98;;;14.73;;
68523;SDS011;55524;51.380;13.372;2023-05-06T12:03:32;23.02;;;14.13;;
68523;SDS011;55524;51.380;13.372;2023-05-06T12:05:59;24.92;;;13.98;;
68523;SDS011;55524;51.380;13.372;2023-05-06T12:08:26;26.48;;;14.52;;
68523;SDS011;55524;51.380;13.372;2023-05-06T12:13:24;21.35;;;14.20;;
68523;SDS011;55524;51.380;13.372;2023-05-06T12:15:56;24.67;;;14.02;;
68523;SDS011;55524;51.380;13.372;2023-05-06T12:18:23;21.27;;;13.75;;
68523;SDS011;55524;51.380;13.372;2023-05-06T12:20:59;23.92;;;15.10;;
68523;SDS011;55524;51.380;13.372;2023-05-06T12:23:30;28.85;;;15.55;;
68523;SDS011;55524;51.380;13.372;2023-05-06T12:26:00;23.73;;;14.60;;
68523;SDS011;55524;51.380;13.372;2023-05-06T12:28:28;25.40;;;14.95;;
68523;SDS011;55524;51.380;13.372;2023-05-06T12:30:56;27.30;;;15.15;;
68523;SDS011;55524;51.380;13.372;2023-05-06T12:33:22;26.30;;;15.05;;
68523;SDS011;55524;51.380;13.372;2023-05-06T12:35:49;27.00;;;15.32;;
68523;SDS011;55524;51.380;13.372;2023-05-06T12:38:17;22.83;;;14.95;;
68523;SDS011;55524;51.380;13.372;2023-05-06T12:40:52;28.20;;;15.60;;
68523;SDS011;55524;51.380;13.372;2023-05-06T12:43:26;25.75;;;15.45;;
68523;SDS011;55524;51.380;13.372;2023-05-06T12:46:03;33.63;;;16.58;;
68523;SDS011;55524;51.380;13.372;2023-05-06T12:48:33;31.27;;;16.90;;
68523;SDS011;55524;51.380;13.372;2023-05-06T12:50:59;26.77;;;15.70;;
68523;SDS011;55524;51.380;13.372;2023-05-06T12:56:07;26.48;;;15.13;;
68523;SDS011;55524;51.380;13.372;2023-05-06T12:58:33;31.92;;;15.57;;
68523;SDS011;55524;51.380;13.372;2023-05-06T13:01:02;28.77;;;15.45;;
68523;SDS011;55524;51.380;13.372;2023-05-06T13:03:30;30.70;;;16.20;;
68523;SDS011;55524;51.380;13.372;2023-05-06T13:05:56;25.35;;;15.43;;
68523;SDS011;55524;51.380;13.372;2023-05-06T13:08:22;33.30;;;17.45;;
68523;SDS011;55524;51.380;13.372;2023-05-06T13:10:49;31.95;;;16.50;;
68523;SDS011;55524;51.380;13.372;2023-05-06T13:13:15;30.95;;;16.98;;
68523;SDS011;55524;51.380;13.372;2023-05-06T13:15:41;30.40;;;16.17;;
68523;SDS011;55524;51.380;13.372;2023-05-06T13:18:08;30.50;;;16.73;;
68523;SDS011;55524;51.380;13.372;2023-05-06T13:20:35;32.25;;;16.75;;
68523;SDS011;55524;51.380;13.372;2023-05-06T13:23:02;36.30;;;17.90;;
68523;SDS011;55524;51.380;13.372;2023-05-06T13:25:31;36.83;;;17.20;;
68523;SDS011;55524;51.380;13.372;2023-05-06T13:27:58;33.20;;;17.10;;
68523;SDS011;55524;51.380;13.372;2023-05-06T13:30:24;30.13;;;17.75;;
68523;SDS011;55524;51.380;13.372;2023-05-06T13:32:50;29.88;;;16.75;;
68523;SDS011;55524;51.380;13.372;2023-05-06T13:35:17;25.40;;;15.90;;
68523;SDS011;55524;51.380;13.372;2023-05-06T13:37:43;33.08;;;16.73;;
68523;SDS011;55524;51.380;13.372;2023-05-06T13:40:09;28.30;;;15.55;;
68523;SDS011;55524;51.380;13.372;2023-05-06T13:42:36;31.23;;;16.50;;
68523;SDS011;55524;51.380;13.372;2023-05-06T13:45:02;34.45;;;17.23;;
68523;SDS011;55524;51.380;13.372;2023-05-06T13:47:29;31.00;;;17.02;;
68523;SDS011;55524;51.380;13.372;2023-05-06T13:49:56;29.55;;;16.75;;
68523;SDS011;55524;51.380;13.372;2023-05-06T13:52:22;32.13;;;16.90;;
68523;SDS011;55524;51.380;13.372;2023-05-06T13:54:48;29.60;;;16.35;;
68523;SDS011;55524;51.380;13.372;2023-05-06T13:57:15;35.25;;;16.92;;
68523;SDS011;55524;51.380;13.372;2023-05-06T13:59:42;32.67;;;16.88;;
68523;SDS011;55524;51.380;13.372;2023-05-06T14:02:09;38.15;;;15.70;;
68523;SDS011;55524;51.380;13.372;2023-05-06T14:04:35;30.83;;;15.70;;
68523;SDS011;55524;51.380;13.372;2023-05-06T14:07:02;32.38;;;16.58;;
68523;SDS011;55524;51.380;13.372;2023-05-06T14:09:28;30.23;;;16.35;;
68523;SDS011;55524;51.380;13.372;2023-05-06T14:11:55;27.55;;;15.65;;
68523;SDS011;55524;51.380;13.372;2023-05-06T14:14:21;28.33;;;15.40;;
68523;SDS011;55524;51.380;13.372;2023-05-06T14:16:47;27.48;;;16.17;;
68523;SDS011;55524;51.380;13.372;2023-05-06T14:19:17;47.17;;;26.23;;
68523;SDS011;55524;51.380;13.372;2023-05-06T14:21:43;33.60;;;17.30;;
68523;SDS011;55524;51.380;13.372;2023-05-06T14:24:09;37.35;;;16.27;;
68523;SDS011;55524;51.380;13.372;2023-05-06T14:26:36;29.67;;;15.32;;
68523;SDS011;55524;51.380;13.372;2023-05-06T14:29:04;27.05;;;14.93;;
68523;SDS011;55524;51.380;13.372;2023-05-06T14:31:32;27.77;;;15.70;;
68523;SDS011;55524;51.380;13.372;2023-05-06T14:33:58;25.95;;;14.25;;
68523;SDS011;55524;51.380;13.372;2023-05-06T14:36:25;26.00;;;13.95;;
68523;SDS011;55524;51.380;13.372;2023-05-06T14:38:52;29.55;;;15.13;;
68523;SDS011;55524;51.380;13.372;2023-05-06T14:41:18;29.35;;;14.82;;
68523;SDS011;55524;51.380;13.372;2023-05-06T14:43:44;28.92;;;14.55;;
68523;SDS011;55524;51.380;13.372;2023-05-06T14:46:11;29.80;;;15.02;;
68523;SDS011;55524;51.380;13.372;2023-05-06T14:48:38;28.30;;;14.18;;
68523;SDS011;55524;51.380;13.372;2023-05-06T14:51:04;27.05;;;14.55;;
68523;SDS011;55524;51.380;13.372;2023-05-06T14:53:31;30.52;;;14.32;;
68523;SDS011;55524;51.380;13.372;2023-05-06T14:55:57;25.02;;;13.75;;